createdAt,value
2022-10-29T00:00:06.278Z,53.20
2022-10-29T00:02:38.748Z,54.81
2022-10-29T00:05:09.913Z,55.11
2022-10-29T00:07:42.832Z,56.59
2022-10-29T00:10:13.263Z,57.58
2022-10-29T00:12:43.400Z,57.75
2022-10-29T00:15:14.769Z,58.83
2022-10-29T00:17:44.985Z,59.41
2022-10-29T00:20:15.429Z,59.63
2022-10-29T00:22:48.243Z,59.76
2022-10-29T00:25:18.546Z,59.98
2022-10-29T00:27:48.736Z,59.55
2022-10-29T00:30:19.599Z,60.37
2022-10-29T00:32:49.939Z,60.53
2022-10-29T00:35:20.400Z,60.73
2022-10-29T00:37:53.520Z,60.18
2022-10-29T00:40:24.039Z,61.06
2022-10-29T00:42:54.226Z,61.98
2022-10-29T00:45:24.477Z,61.90
2022-10-29T00:47:56.723Z,62.93
2022-10-29T00:50:28.155Z,62.13
2022-10-29T00:53:02.209Z,61.62
2022-10-29T00:55:32.627Z,60.80
2022-10-29T00:58:02.803Z,60.33
2022-10-29T01:00:33.066Z,59.59
2022-10-29T01:03:03.373Z,59.33
2022-10-29T01:05:34.750Z,60.25
2022-10-29T01:08:08.576Z,61.01
2022-10-29T01:10:53.210Z,60.38
2022-10-29T01:13:40.001Z,60.40
2022-10-29T01:16:22.335Z,60.64
2022-10-29T01:19:06.128Z,61.34
2022-10-29T01:21:45.481Z,59.65
2022-10-29T01:25:02.952Z,60.45
2022-10-29T01:28:02.612Z,61.41
2022-10-29T01:31:27.148Z,62.47
2022-10-29T01:34:10.425Z,63.09
2022-10-29T01:36:47.247Z,62.32
2022-10-29T01:39:25.953Z,63.13
2022-10-29T01:42:04.280Z,63.35
2022-10-29T01:44:40.806Z,63.67
2022-10-29T01:47:17.925Z,63.48
2022-10-29T01:49:56.180Z,63.02
2022-10-29T01:52:29.181Z,62.93
2022-10-29T01:54:59.284Z,62.33
2022-10-29T01:57:33.980Z,61.06
2022-10-29T02:00:10.227Z,60.85
2022-10-29T02:03:03.863Z,60.49
2022-10-29T02:05:40.172Z,60.74
2022-10-29T02:08:24.065Z,60.73
2022-10-29T02:10:59.799Z,60.50
2022-10-29T02:13:37.890Z,60.29
2022-10-29T02:16:11.449Z,60.15
2022-10-29T02:18:46.791Z,60.50
2022-10-29T02:21:22.155Z,60.60
2022-10-29T02:23:52.463Z,60.77
2022-10-29T02:26:22.698Z,60.65
2022-10-29T02:28:52.834Z,60.58
2022-10-29T02:31:22.950Z,61.15
2022-10-29T02:33:53.127Z,61.96
2022-10-29T02:36:25.845Z,63.22
2022-10-29T02:38:56.058Z,63.03
2022-10-29T02:41:26.209Z,63.75
2022-10-29T02:43:56.301Z,64.62
2022-10-29T02:46:27.282Z,65.27
2022-10-29T02:48:57.351Z,66.00
2022-10-29T02:51:30.077Z,66.64
2022-10-29T02:54:00.246Z,66.79
2022-10-29T02:56:30.402Z,66.94
2022-10-29T02:59:00.795Z,66.92
2022-10-29T03:01:31.271Z,67.91
2022-10-29T03:04:01.644Z,67.80
2022-10-29T03:06:34.346Z,67.73
2022-10-29T03:09:04.581Z,67.60
2022-10-29T03:11:34.698Z,68.13
2022-10-29T03:14:04.870Z,68.05
2022-10-29T03:16:34.959Z,69.06
2022-10-29T03:19:05.528Z,69.46
2022-10-29T03:21:38.226Z,69.49
2022-10-29T03:24:09.472Z,69.58
2022-10-29T03:26:39.592Z,70.20
2022-10-29T03:29:09.792Z,70.58
2022-10-29T03:31:39.960Z,70.29
2022-10-29T03:34:10.110Z,69.85
2022-10-29T03:36:42.822Z,70.15
2022-10-29T03:39:13.003Z,70.67
2022-10-29T03:41:43.693Z,70.25
2022-10-29T03:44:13.792Z,69.19
2022-10-29T03:46:43.953Z,68.89
2022-10-29T03:49:14.038Z,69.56
2022-10-29T03:51:47.043Z,69.08
2022-10-29T03:54:17.105Z,69.14
2022-10-29T03:56:47.216Z,69.27
2022-10-29T03:59:17.698Z,69.30
2022-10-29T04:01:47.950Z,70.16
2022-10-29T04:04:18.120Z,70.05
2022-10-29T04:06:50.950Z,70.72
2022-10-29T04:09:21.088Z,70.59
2022-10-29T04:11:51.255Z,70.49
2022-10-29T04:14:21.346Z,71.01
2022-10-29T04:16:51.631Z,71.10
2022-10-29T04:19:21.740Z,71.43
2022-10-29T04:28:41.971Z,75.67
2022-10-29T04:30:25.289Z,76.96
2022-10-29T04:33:00.050Z,77.42
2022-10-29T04:35:32.097Z,77.65
2022-10-29T04:38:11.296Z,77.97
2022-10-29T04:40:41.359Z,77.95
2022-10-29T04:43:11.353Z,78.34
2022-10-29T04:48:32.602Z,79.13
2022-10-29T04:51:02.700Z,79.73
2022-10-29T04:53:35.469Z,79.94
2022-10-29T04:56:06.265Z,80.02
2022-10-29T04:58:36.122Z,80.55
2022-10-29T05:01:07.275Z,80.18
2022-10-29T05:03:37.802Z,79.88
2022-10-29T05:06:09.841Z,80.11
2022-10-29T05:08:42.630Z,80.28
2022-10-29T05:11:13.413Z,80.82
2022-10-29T05:13:45.284Z,80.68
2022-10-29T05:16:15.412Z,81.53
2022-10-29T05:18:45.548Z,82.18
2022-10-29T05:21:15.656Z,81.87
2022-10-29T05:23:48.263Z,82.61
2022-10-29T05:26:18.350Z,82.77
2022-10-29T05:28:48.433Z,82.55
2022-10-29T05:31:18.578Z,83.01
2022-10-29T05:33:51.102Z,83.40
2022-10-29T05:36:23.949Z,83.35
2022-10-29T05:38:56.581Z,83.39
2022-10-29T05:41:26.752Z,83.12
2022-10-29T05:43:56.900Z,83.54
2022-10-29T05:46:27.103Z,83.95
2022-10-29T05:48:57.257Z,84.24
2022-10-29T05:51:27.367Z,84.31
2022-10-29T05:54:00.051Z,85.09
2022-10-29T05:56:30.204Z,84.37
2022-10-29T05:59:00.297Z,84.50
2022-10-29T06:01:30.560Z,84.52
2022-10-29T06:04:01.442Z,84.67
2022-10-29T06:06:34.101Z,84.96
2022-10-29T06:09:07.136Z,84.93
2022-10-29T06:11:37.192Z,85.16
2022-10-29T06:14:07.310Z,85.42
2022-10-29T06:16:37.377Z,85.60
2022-10-29T06:19:07.680Z,85.79
2022-10-29T06:21:38.306Z,85.42
2022-10-29T06:24:13.665Z,85.03
2022-10-29T06:26:44.037Z,84.71
2022-10-29T06:29:14.153Z,84.81
2022-10-29T06:31:44.211Z,84.91
2022-10-29T06:34:14.880Z,85.19
2022-10-29T06:36:44.885Z,86.22
2022-10-29T06:39:17.637Z,86.79
2022-10-29T06:41:47.741Z,87.13
2022-10-29T06:44:22.162Z,86.10
2022-10-29T06:46:52.216Z,85.88
2022-10-29T06:49:23.048Z,86.16
2022-10-29T06:51:52.935Z,85.33
2022-10-29T06:54:25.718Z,85.44
2022-10-29T06:56:55.976Z,84.51
2022-10-29T06:59:26.367Z,84.45
2022-10-29T07:01:56.990Z,83.81
2022-10-29T07:04:27.581Z,81.98
2022-10-29T07:06:57.626Z,82.60
2022-10-29T07:09:30.268Z,82.17
2022-10-29T07:12:00.383Z,79.47
2022-10-29T07:14:30.492Z,75.85
2022-10-29T07:17:00.676Z,74.08
2022-10-29T07:19:30.878Z,72.16
2022-10-29T07:22:00.954Z,70.95
2022-10-29T07:24:33.626Z,70.27
2022-10-29T07:27:06.881Z,70.36
2022-10-29T07:29:37.002Z,68.08
2022-10-29T07:32:07.551Z,66.88
2022-10-29T07:34:37.617Z,65.29
2022-10-29T07:37:07.906Z,64.52
2022-10-29T07:39:40.564Z,64.20
2022-10-29T07:42:10.679Z,63.62
2022-10-29T07:44:40.794Z,63.09
2022-10-29T07:47:10.990Z,62.44
2022-10-29T07:49:41.090Z,61.71
2022-10-29T07:52:11.985Z,61.45
2022-10-29T07:54:44.728Z,60.46
2022-10-29T07:57:15.996Z,60.24
2022-10-29T07:59:47.115Z,59.96
2022-10-29T08:02:17.243Z,59.29
2022-10-29T08:04:47.421Z,58.13
2022-10-29T08:07:17.543Z,58.65
2022-10-29T08:09:50.246Z,58.16
2022-10-29T08:12:20.379Z,58.48
2022-10-29T08:14:50.564Z,59.55
2022-10-29T08:17:20.861Z,61.64
2022-10-29T08:19:50.962Z,61.92
2022-10-29T08:22:21.070Z,60.22
2022-10-29T08:24:53.808Z,60.75
2022-10-29T08:27:23.856Z,60.75
2022-10-29T08:29:53.943Z,60.20
2022-10-29T08:32:24.187Z,58.93
2022-10-29T08:34:54.292Z,58.20
2022-10-29T08:37:24.537Z,56.94
2022-10-29T08:39:57.284Z,56.51
2022-10-29T08:42:45.488Z,55.42
2022-10-29T08:45:26.743Z,55.05
2022-10-29T08:48:31.828Z,54.57
2022-10-29T08:51:08.642Z,53.75
2022-10-29T08:53:45.370Z,53.88
2022-10-29T08:56:25.899Z,53.12
2022-10-29T08:59:05.432Z,50.69
2022-10-29T09:01:36.288Z,49.21
2022-10-29T09:04:19.896Z,48.62
2022-10-29T09:07:15.389Z,46.98
2022-10-29T09:09:52.514Z,45.83
2022-10-29T09:12:53.553Z,44.65
2022-10-29T09:15:47.577Z,44.85
2022-10-29T09:18:35.630Z,45.27
2022-10-29T09:21:22.375Z,44.69
2022-10-29T09:24:08.995Z,44.42
2022-10-29T09:26:52.956Z,45.39
2022-10-29T09:29:42.632Z,46.34
2022-10-29T09:32:19.144Z,47.29
2022-10-29T09:34:54.489Z,47.77
2022-10-29T09:37:34.173Z,47.81
2022-10-29T09:40:08.013Z,48.58
2022-10-29T09:42:42.092Z,48.57
2022-10-29T09:45:20.421Z,47.92
2022-10-29T09:48:02.147Z,47.06
2022-10-29T09:50:40.954Z,45.68
2022-10-29T09:53:11.698Z,45.09
2022-10-29T09:55:44.437Z,44.04
2022-10-29T09:58:22.519Z,42.87
2022-10-29T10:00:57.182Z,42.41
2022-10-29T10:03:33.521Z,41.58
2022-10-29T10:06:06.231Z,41.33
2022-10-29T10:08:38.872Z,40.81
2022-10-29T10:11:10.427Z,39.69
2022-10-29T10:13:56.378Z,39.90
2022-10-29T10:16:33.179Z,38.83
2022-10-29T10:19:03.612Z,38.44
2022-10-29T10:21:35.699Z,39.38
2022-10-29T10:24:06.844Z,40.45
2022-10-29T10:26:43.147Z,40.52
2022-10-29T10:29:18.838Z,39.97
2022-10-29T10:31:53.308Z,39.51
2022-10-29T10:34:25.538Z,39.85
2022-10-29T10:36:58.793Z,38.55
2022-10-29T10:39:32.978Z,37.53
2022-10-29T10:42:07.294Z,37.32
2022-10-29T10:44:38.440Z,36.70
2022-10-29T10:47:11.413Z,35.12
2022-10-29T10:49:42.418Z,35.19
2022-10-29T10:52:20.699Z,33.95
2022-10-29T10:55:00.630Z,34.41
2022-10-29T10:57:36.686Z,33.87
2022-10-29T11:00:12.517Z,33.44
2022-10-29T11:02:52.940Z,32.75
2022-10-29T11:05:25.963Z,32.79
2022-10-29T11:08:03.441Z,33.62
2022-10-29T11:10:40.149Z,33.34
2022-10-29T11:13:18.012Z,32.97
2022-10-29T11:15:57.695Z,33.28
2022-10-29T11:18:33.741Z,32.16
2022-10-29T11:21:15.067Z,31.85
2022-10-29T11:23:57.094Z,31.83
2022-10-29T11:26:34.744Z,33.37
2022-10-29T11:29:17.473Z,32.81
2022-10-29T11:31:56.875Z,31.52
2022-10-29T11:34:51.785Z,31.14
2022-10-29T11:37:30.653Z,30.33
2022-10-29T11:40:07.475Z,29.80
2022-10-29T11:42:39.452Z,29.15
2022-10-29T11:45:18.255Z,28.33
2022-10-29T11:48:11.201Z,28.63
2022-10-29T11:50:55.980Z,31.77
2022-10-29T11:53:56.555Z,33.82
2022-10-29T11:56:41.554Z,34.88
2022-10-29T11:59:25.190Z,35.48
2022-10-29T12:02:06.656Z,36.03
2022-10-29T12:04:41.137Z,36.47
2022-10-29T12:07:30.234Z,36.56
2022-10-29T12:10:18.239Z,37.62
2022-10-29T12:12:58.580Z,38.49
2022-10-29T12:15:34.400Z,36.53
2022-10-29T12:18:16.376Z,34.27
2022-10-29T12:20:55.318Z,32.13
2022-10-29T12:23:40.052Z,31.28
2022-10-29T12:26:18.719Z,30.18
2022-10-29T12:28:58.853Z,29.29
2022-10-29T12:31:37.306Z,28.41
2022-10-29T12:34:14.388Z,27.83
2022-10-29T12:36:54.986Z,27.55
2022-10-29T12:39:35.631Z,27.49
2022-10-29T12:42:10.591Z,27.39
2022-10-29T12:44:48.824Z,29.09
2022-10-29T12:47:25.887Z,31.19
2022-10-29T12:50:10.120Z,33.30
2022-10-29T12:52:48.431Z,34.91
2022-10-29T12:55:22.255Z,36.46
2022-10-29T12:57:52.373Z,37.94
2022-10-29T13:00:50.694Z,39.86
2022-10-29T13:04:02.803Z,42.01
2022-10-29T13:06:49.648Z,43.19
2022-10-29T13:09:22.605Z,44.55
2022-10-29T13:11:58.617Z,45.76
2022-10-29T13:14:40.797Z,46.43
2022-10-29T13:17:29.707Z,47.04
2022-10-29T13:20:02.702Z,47.81
2022-10-29T13:22:55.889Z,48.41
2022-10-29T13:25:51.487Z,49.20
2022-10-29T13:28:55.213Z,49.08
2022-10-29T13:31:51.522Z,48.84
2022-10-29T13:34:56.336Z,48.87
2022-10-29T13:37:55.511Z,49.16
2022-10-29T13:41:05.409Z,48.41
2022-10-29T13:43:36.465Z,48.04
2022-10-29T13:46:32.363Z,48.33
2022-10-29T13:49:07.716Z,47.83
2022-10-29T13:51:47.401Z,47.78
2022-10-29T13:54:28.560Z,47.92
2022-10-29T13:57:03.856Z,48.31
2022-10-29T13:59:43.682Z,48.97
2022-10-29T14:02:36.936Z,49.35
2022-10-29T14:05:18.443Z,49.02
2022-10-29T14:07:57.026Z,49.81
2022-10-29T14:10:32.486Z,49.27
2022-10-29T14:13:14.032Z,49.42
2022-10-29T14:16:04.049Z,49.82
2022-10-29T14:18:40.840Z,49.88
2022-10-29T14:21:17.875Z,49.54
2022-10-29T14:24:02.052Z,50.71
2022-10-29T14:26:35.569Z,50.80
2022-10-29T14:29:17.810Z,50.50
2022-10-29T14:31:48.463Z,49.97
2022-10-29T14:34:30.814Z,49.83
2022-10-29T14:37:05.916Z,49.37
2022-10-29T14:39:56.891Z,49.23
2022-10-29T14:42:34.140Z,49.28
2022-10-29T14:45:08.044Z,49.90
2022-10-29T14:47:40.568Z,50.19
2022-10-29T14:50:21.761Z,50.46
2022-10-29T14:52:55.819Z,50.65
2022-10-29T14:55:29.083Z,51.39
2022-10-29T14:58:07.172Z,51.54
2022-10-29T15:00:38.976Z,51.61
2022-10-29T15:03:10.513Z,52.37
2022-10-29T15:05:43.522Z,52.42
2022-10-29T15:08:19.444Z,52.84
2022-10-29T15:10:51.981Z,53.76
2022-10-29T15:13:33.555Z,53.99
2022-10-29T15:16:09.642Z,54.48
2022-10-29T15:18:41.099Z,54.38
2022-10-29T15:21:13.833Z,54.68
2022-10-29T15:23:47.900Z,55.21
2022-10-29T15:26:21.676Z,55.17
2022-10-29T15:28:55.192Z,55.96
2022-10-29T15:31:32.382Z,56.03
2022-10-29T15:34:10.789Z,56.22
2022-10-29T15:36:56.263Z,56.65
2022-10-29T15:39:30.170Z,56.50
2022-10-29T15:42:03.148Z,56.96
2022-10-29T15:44:40.788Z,56.87
2022-10-29T15:47:29.475Z,57.18
2022-10-29T15:49:59.733Z,56.74
2022-10-29T15:52:37.089Z,56.45
2022-10-29T15:55:12.630Z,56.00
2022-10-29T15:57:43.054Z,56.12
2022-10-29T16:00:16.318Z,56.38
2022-10-29T16:02:46.586Z,56.31
2022-10-29T16:05:18.326Z,55.28
2022-10-29T16:07:51.362Z,55.94
2022-10-29T16:10:24.111Z,55.79
2022-10-29T16:12:54.597Z,57.48
2022-10-29T16:15:25.060Z,58.85
2022-10-29T16:17:55.633Z,55.95
2022-10-29T16:20:25.941Z,56.03
2022-10-29T16:22:58.697Z,56.78
2022-10-29T16:25:31.476Z,56.28
2022-10-29T16:28:01.727Z,56.12
2022-10-29T16:30:31.926Z,55.88
2022-10-29T16:33:03.990Z,56.32
2022-10-29T16:35:34.295Z,56.59
2022-10-29T16:38:07.110Z,57.30
2022-10-29T16:40:37.312Z,57.25
2022-10-29T16:43:07.620Z,59.08
2022-10-29T16:45:38.129Z,60.69
2022-10-29T16:48:08.517Z,60.08
2022-10-29T16:50:38.744Z,59.67
2022-10-29T16:53:13.175Z,61.51
2022-10-29T16:55:44.234Z,62.97
2022-10-29T16:58:16.439Z,64.20
2022-10-29T17:00:47.301Z,65.04
2022-10-29T17:03:19.892Z,66.03
2022-10-29T17:05:50.148Z,64.76
2022-10-29T17:08:23.074Z,64.38
2022-10-29T17:10:53.208Z,64.69
2022-10-29T17:13:23.410Z,64.52
2022-10-29T17:15:53.522Z,63.78
2022-10-29T17:18:24.768Z,62.74
2022-10-29T17:21:00.122Z,63.64
2022-10-29T17:23:33.380Z,63.15
2022-10-29T17:26:03.998Z,62.24
2022-10-29T17:28:35.462Z,61.99
2022-10-29T17:31:08.299Z,61.34
2022-10-29T17:33:39.288Z,61.24
2022-10-29T17:36:14.463Z,61.15
2022-10-29T17:38:47.629Z,60.75
2022-10-29T17:41:17.741Z,60.31
2022-10-29T17:43:47.839Z,59.89
2022-10-29T17:46:18.223Z,59.47
2022-10-29T17:48:48.313Z,59.76
2022-10-29T17:51:18.390Z,59.33
2022-10-29T17:53:51.492Z,59.07
2022-10-29T17:56:21.600Z,58.14
2022-10-29T17:58:51.968Z,58.30
2022-10-29T18:01:22.339Z,57.94
2022-10-29T18:03:52.516Z,58.73
2022-10-29T18:06:22.650Z,57.76
2022-10-29T18:08:55.411Z,57.67
2022-10-29T18:11:27.789Z,57.05
2022-10-29T18:14:00.246Z,56.92
2022-10-29T18:16:33.205Z,56.99
2022-10-29T18:19:03.760Z,62.36
2022-10-29T18:21:34.625Z,62.60
2022-10-29T18:24:08.442Z,60.97
2022-10-29T18:26:39.786Z,61.77
2022-10-29T18:29:13.338Z,62.76
2022-10-29T18:31:45.191Z,63.93
2022-10-29T18:34:17.399Z,64.88
2022-10-29T18:36:47.700Z,66.70
2022-10-29T18:39:20.541Z,68.05
2022-10-29T18:41:50.752Z,68.83
2022-10-29T18:44:20.898Z,68.80
2022-10-29T18:46:51.155Z,68.74
2022-10-29T18:49:21.601Z,69.50
2022-10-29T18:51:51.732Z,70.47
2022-10-29T18:54:24.584Z,70.36
2022-10-29T18:56:55.066Z,70.62
2022-10-29T18:59:25.294Z,70.90
2022-10-29T19:01:55.522Z,70.65
2022-10-29T19:04:25.741Z,70.56
2022-10-29T19:06:57.384Z,67.41
2022-10-29T19:09:30.257Z,68.71
2022-10-29T19:12:00.447Z,64.56
2022-10-29T19:14:33.576Z,64.16
2022-10-29T19:17:03.795Z,61.67
2022-10-29T19:19:33.983Z,64.00
2022-10-29T19:22:04.073Z,63.13
2022-10-29T19:24:36.884Z,60.23
2022-10-29T19:27:07.049Z,59.59
2022-10-29T19:29:37.199Z,59.14
2022-10-29T19:32:07.813Z,58.50
2022-10-29T19:37:09.145Z,58.65
2022-10-29T19:39:41.895Z,61.15
2022-10-29T19:42:11.938Z,59.78
2022-10-29T19:44:42.068Z,58.83
2022-10-29T19:47:12.195Z,60.32
2022-10-29T19:49:42.454Z,62.98
2022-10-29T19:52:12.598Z,60.69
2022-10-29T19:54:45.330Z,59.30
2022-10-29T19:57:15.452Z,59.14
2022-10-29T19:59:45.540Z,60.33
2022-10-29T20:02:15.915Z,60.34
2022-10-29T20:04:46.108Z,62.10
2022-10-29T20:07:16.267Z,65.20
2022-10-29T20:09:51.195Z,65.92
2022-10-29T20:12:21.331Z,65.15
2022-10-29T20:14:51.517Z,66.07
2022-10-29T20:17:21.766Z,66.76
2022-10-29T20:19:52.304Z,66.82
2022-10-29T20:22:22.411Z,66.98
2022-10-29T20:24:55.131Z,67.19
2022-10-29T20:27:26.016Z,66.80
2022-10-29T20:29:56.174Z,66.28
2022-10-29T20:32:26.360Z,66.21
2022-10-29T20:34:56.555Z,67.00
2022-10-29T20:37:26.776Z,66.91
2022-10-29T20:39:59.877Z,65.77
2022-10-29T20:42:30.014Z,67.00
2022-10-29T20:45:00.194Z,67.03
2022-10-29T20:47:30.313Z,67.23
2022-10-29T20:50:00.483Z,66.96
2022-10-29T20:52:30.659Z,66.98
2022-10-29T20:55:03.528Z,67.66
2022-10-29T20:57:34.392Z,67.40
2022-10-29T21:00:04.320Z,68.15
2022-10-29T21:02:34.580Z,68.56
2022-10-29T21:05:04.804Z,69.16
2022-10-29T21:07:35.035Z,69.58
2022-10-29T21:10:09.247Z,71.21
2022-10-29T21:12:39.472Z,70.78
2022-10-29T21:15:11.671Z,67.55
2022-10-29T21:17:41.782Z,69.62
2022-10-29T21:20:13.311Z,67.66
2022-10-29T21:22:43.506Z,66.58
2022-10-29T21:25:16.332Z,67.56
2022-10-29T21:27:46.404Z,68.00
2022-10-29T21:30:17.197Z,65.81
2022-10-29T21:32:47.046Z,63.81
2022-10-29T21:35:17.519Z,63.32
2022-10-29T21:37:47.718Z,63.06
2022-10-29T21:40:20.479Z,64.19
2022-10-29T21:42:50.582Z,65.54
2022-10-29T21:45:20.781Z,66.49
2022-10-29T21:47:51.811Z,67.16
2022-10-29T21:50:21.888Z,67.66
2022-10-29T21:52:52.049Z,67.93
2022-10-29T21:55:24.826Z,68.10
2022-10-29T21:57:55.427Z,67.67
2022-10-29T22:00:25.651Z,67.69
2022-10-29T22:03:00.145Z,65.15
2022-10-29T22:05:34.028Z,62.44
2022-10-29T22:08:04.563Z,62.26
2022-10-29T22:10:37.489Z,61.83
2022-10-29T22:13:10.396Z,65.20
2022-10-29T22:15:43.698Z,66.47
2022-10-29T22:18:14.163Z,67.07
2022-10-29T22:20:44.304Z,67.96
2022-10-29T22:23:17.417Z,67.94
2022-10-29T22:25:55.270Z,67.92
2022-10-29T22:28:25.447Z,67.94
2022-10-29T22:31:01.718Z,66.67
2022-10-29T22:33:32.850Z,67.09
2022-10-29T22:36:16.275Z,67.43
2022-10-29T22:38:46.790Z,67.96
2022-10-29T22:41:20.676Z,69.02
2022-10-29T22:43:51.054Z,69.06
2022-10-29T22:46:22.650Z,67.92
2022-10-29T22:48:52.769Z,69.32
2022-10-29T22:51:25.436Z,69.23
2022-10-29T22:53:56.660Z,68.97
2022-10-29T22:56:31.877Z,69.74
2022-10-29T22:59:02.940Z,68.92
2022-10-29T23:01:40.280Z,69.44
2022-10-29T23:04:15.795Z,68.75
2022-10-29T23:06:47.867Z,68.31
2022-10-29T23:09:18.035Z,67.79
2022-10-29T23:11:50.815Z,68.80
2022-10-29T23:14:20.905Z,69.37
2022-10-29T23:16:50.936Z,69.18
2022-10-29T23:19:21.655Z,65.95
2022-10-29T23:21:51.935Z,67.12
2022-10-29T23:24:22.237Z,66.52
2022-10-29T23:26:54.998Z,68.03
2022-10-29T23:29:25.189Z,67.65
2022-10-29T23:31:55.208Z,68.59
2022-10-29T23:34:25.293Z,68.62
2022-10-29T23:36:55.483Z,68.38
2022-10-29T23:39:25.689Z,68.18
2022-10-29T23:41:58.431Z,67.71
2022-10-29T23:44:28.578Z,67.45
2022-10-29T23:46:58.701Z,67.25
2022-10-29T23:49:28.806Z,67.56
2022-10-29T23:51:59.066Z,67.87
2022-10-29T23:54:29.178Z,67.73
2022-10-29T23:57:01.850Z,67.63
2022-10-29T23:59:32.018Z,67.93
